createdAt,value
2023-04-25T00:00:29.029Z,8.30
2023-04-25T00:02:59.153Z,7.60
2023-04-25T00:05:27.510Z,8.40
2023-04-25T00:07:55.249Z,8.00
2023-04-25T00:10:22.284Z,8.90
2023-04-25T00:12:50.073Z,7.40
2023-04-25T00:15:17.610Z,17.50
2023-04-25T00:17:44.752Z,8.00
2023-04-25T00:20:15.721Z,8.20
2023-04-25T00:22:46.770Z,8.10
2023-04-25T00:25:13.777Z,7.90
2023-04-25T00:27:41.290Z,7.90
2023-04-25T00:30:09.044Z,7.80
2023-04-25T00:32:36.290Z,9.20
2023-04-25T00:35:03.417Z,8.00
2023-04-25T00:37:32.913Z,9.70
2023-04-25T00:39:59.944Z,8.20
2023-04-25T00:42:27.185Z,9.10
2023-04-25T00:44:55.224Z,8.20
2023-04-25T00:47:22.822Z,8.20
2023-04-25T00:49:50.074Z,8.00
2023-04-25T00:52:17.539Z,7.50
2023-04-25T00:54:45.744Z,7.40
2023-04-25T00:57:12.767Z,9.70
2023-04-25T00:59:41.666Z,10.40
2023-04-25T01:02:11.839Z,6.90
2023-04-25T01:04:39.148Z,7.60
2023-04-25T01:07:06.411Z,6.70
2023-04-25T01:09:35.496Z,6.50
2023-04-25T01:12:02.952Z,8.70
2023-04-25T01:14:31.147Z,6.70
2023-04-25T01:16:58.573Z,9.10
2023-04-25T01:19:25.940Z,6.90
2023-04-25T01:21:52.966Z,8.30
2023-04-25T01:24:24.841Z,9.00
2023-04-25T01:26:53.037Z,5.40
2023-04-25T01:29:25.079Z,8.20
2023-04-25T01:31:53.642Z,7.40
2023-04-25T01:34:22.592Z,7.40
2023-04-25T01:36:50.982Z,8.30
2023-04-25T01:39:21.619Z,6.60
2023-04-25T01:41:48.810Z,9.20
2023-04-25T01:44:18.805Z,8.70
2023-04-25T01:46:47.233Z,7.00
2023-04-25T01:49:14.233Z,8.80
2023-04-25T01:51:44.969Z,7.10
2023-04-25T01:54:12.725Z,8.70
2023-04-25T01:56:41.439Z,9.30
2023-04-25T01:59:11.884Z,10.50
2023-04-25T02:01:42.993Z,8.80
2023-04-25T02:04:19.166Z,10.90
2023-04-25T02:06:47.226Z,9.10
2023-04-25T02:09:14.599Z,14.00
2023-04-25T02:11:46.292Z,12.20
2023-04-25T02:14:43.667Z,12.10
2023-04-25T02:17:17.266Z,13.50
2023-04-25T02:19:47.537Z,11.00
2023-04-25T02:22:14.579Z,10.30
2023-04-25T02:24:42.650Z,10.20
2023-04-25T02:27:15.262Z,13.90
2023-04-25T02:29:44.222Z,12.80
2023-04-25T02:32:11.886Z,11.80
2023-04-25T02:34:39.650Z,12.50
2023-04-25T02:37:08.654Z,12.30
2023-04-25T02:39:35.893Z,9.60
2023-04-25T02:42:08.094Z,11.70
2023-04-25T02:44:35.836Z,8.90
2023-04-25T02:47:03.019Z,8.90
2023-04-25T02:49:30.131Z,12.00
2023-04-25T02:51:57.079Z,10.00
2023-04-25T02:54:24.020Z,13.40
2023-04-25T02:56:51.274Z,12.10
2023-04-25T02:59:23.544Z,14.40
2023-04-25T03:01:50.898Z,12.70
2023-04-25T03:04:18.064Z,19.60
2023-04-25T03:06:45.098Z,24.60
2023-04-25T03:09:12.144Z,29.80
2023-04-25T03:11:42.571Z,28.80
2023-04-25T03:14:11.358Z,21.40
2023-04-25T03:16:38.361Z,20.60
2023-04-25T03:19:06.792Z,16.00
2023-04-25T03:21:34.864Z,14.70
2023-04-25T03:24:03.961Z,12.70
2023-04-25T03:26:32.560Z,11.60
2023-04-25T03:29:00.419Z,12.60
2023-04-25T03:31:28.332Z,10.80
2023-04-25T03:33:55.730Z,12.30
2023-04-25T03:36:24.326Z,12.40
2023-04-25T03:38:51.891Z,10.00
2023-04-25T03:41:19.656Z,9.30
2023-04-25T03:43:52.350Z,15.20
2023-04-25T03:46:19.786Z,9.00
2023-04-25T03:48:47.236Z,12.90
2023-04-25T03:51:19.199Z,12.30
2023-04-25T03:53:46.260Z,9.50
2023-04-25T03:56:16.575Z,9.00
2023-04-25T03:58:45.160Z,8.60
2023-04-25T04:01:12.924Z,8.10
2023-04-25T04:03:40.290Z,10.00
2023-04-25T04:06:08.150Z,14.90
2023-04-25T04:08:39.290Z,12.80
2023-04-25T04:11:06.568Z,11.00
2023-04-25T04:13:34.008Z,9.40
2023-04-25T04:16:01.993Z,7.80
2023-04-25T04:18:29.224Z,9.40
2023-04-25T04:20:59.289Z,12.00
2023-04-25T04:23:29.360Z,11.90
2023-04-25T04:25:57.533Z,12.40
2023-04-25T04:28:45.183Z,16.80
2023-04-25T04:31:20.825Z,9.10
2023-04-25T04:33:48.688Z,9.70
2023-04-25T04:36:21.156Z,11.40
2023-04-25T04:41:26.929Z,8.20
2023-04-25T04:44:04.333Z,11.00
2023-04-25T04:46:47.958Z,12.20
2023-04-25T04:49:35.380Z,11.10
2023-04-25T04:52:22.575Z,8.60
2023-04-25T04:55:16.583Z,9.10
2023-04-25T04:57:53.153Z,9.50
2023-04-25T05:00:34.234Z,9.20
2023-04-25T05:03:13.367Z,8.60
2023-04-25T05:05:54.309Z,13.20
2023-04-25T05:08:40.228Z,11.40
2023-04-25T05:11:18.337Z,11.20
2023-04-25T05:14:11.865Z,8.40
2023-04-25T05:17:05.987Z,10.10
2023-04-25T05:19:54.161Z,8.40
2023-04-25T05:22:42.989Z,10.10
2023-04-25T05:25:28.584Z,9.50
2023-04-25T05:28:28.077Z,12.80
2023-04-25T05:31:18.393Z,9.70
2023-04-25T05:33:53.927Z,13.30
2023-04-25T05:36:22.603Z,7.80
2023-04-25T05:38:50.065Z,10.80
2023-04-25T05:41:37.906Z,9.60
2023-04-25T05:44:34.228Z,9.90
2023-04-25T05:47:21.567Z,10.60
2023-04-25T05:50:14.997Z,8.50
2023-04-25T05:53:07.462Z,10.30
2023-04-25T05:55:41.163Z,10.70
2023-04-25T05:58:30.233Z,12.40
2023-04-25T06:01:00.481Z,8.40
2023-04-25T06:03:28.230Z,12.10
2023-04-25T06:08:27.841Z,9.00
2023-04-25T06:10:55.164Z,9.30
2023-04-25T06:13:24.807Z,10.10
2023-04-25T06:15:52.062Z,10.00
2023-04-25T06:18:19.108Z,11.80
2023-04-25T06:20:47.486Z,8.30
2023-04-25T06:23:14.663Z,11.00
2023-04-25T06:25:49.785Z,10.10
2023-04-25T06:28:16.826Z,10.00
2023-04-25T06:30:44.209Z,8.70
2023-04-25T06:33:16.753Z,11.00
2023-04-25T06:35:44.111Z,10.90
2023-04-25T06:38:12.799Z,13.60
2023-04-25T06:40:42.710Z,11.10
2023-04-25T06:43:09.976Z,8.70
2023-04-25T06:45:51.156Z,10.30
2023-04-25T06:48:19.215Z,11.70
2023-04-25T06:50:47.774Z,9.90
2023-04-25T06:53:17.201Z,10.70
2023-04-25T06:55:46.093Z,11.40
2023-04-25T06:58:22.051Z,14.20
2023-04-25T07:00:57.828Z,10.30
2023-04-25T07:03:26.913Z,10.50
2023-04-25T07:05:58.864Z,11.60
2023-04-25T07:08:35.144Z,12.20
2023-04-25T07:11:03.958Z,10.90
2023-04-25T07:13:31.719Z,12.40
2023-04-25T07:16:12.166Z,19.40
2023-04-25T07:18:39.560Z,10.80
2023-04-25T07:21:07.684Z,11.60
2023-04-25T07:23:36.982Z,11.00
2023-04-25T07:26:13.699Z,17.10
2023-04-25T07:29:26.574Z,12.00
2023-04-25T07:34:25.311Z,10.70
2023-04-25T07:36:52.638Z,9.30
2023-04-25T07:39:20.603Z,14.40
2023-04-25T07:41:49.097Z,9.50
2023-04-25T07:46:48.708Z,10.60
2023-04-25T07:49:16.532Z,9.90
2023-04-25T07:51:44.857Z,7.20
2023-04-25T07:54:15.290Z,7.60
2023-04-25T07:56:52.879Z,8.50
2023-04-25T07:59:22.185Z,41.30
2023-04-25T08:01:49.554Z,10.10
2023-04-25T08:04:17.127Z,7.00
2023-04-25T08:06:56.453Z,7.50
2023-04-25T08:09:30.476Z,7.80
2023-04-25T08:11:58.658Z,6.90
2023-04-25T08:14:32.655Z,7.70
2023-04-25T08:17:01.537Z,6.20
2023-04-25T08:19:28.630Z,8.70
2023-04-25T08:21:57.644Z,8.90
2023-04-25T08:24:30.325Z,8.20
2023-04-25T08:27:01.262Z,6.80
2023-04-25T08:29:29.754Z,4.20
2023-04-25T08:31:58.034Z,7.60
2023-04-25T08:34:25.815Z,6.30
2023-04-25T08:36:53.993Z,6.20
2023-04-25T08:39:39.608Z,6.90
2023-04-25T08:42:30.351Z,4.70
2023-04-25T08:44:58.335Z,4.50
2023-04-25T08:47:28.454Z,6.90
2023-04-25T08:49:59.272Z,29.90
2023-04-25T08:52:29.319Z,5.10
2023-04-25T08:54:57.593Z,7.10
2023-04-25T08:57:26.377Z,7.50
2023-04-25T08:59:54.797Z,24.30
2023-04-25T09:02:22.760Z,4.60
2023-04-25T09:04:56.081Z,6.10
2023-04-25T09:07:23.673Z,8.00
2023-04-25T09:09:51.244Z,5.80
2023-04-25T09:12:21.693Z,5.10
2023-04-25T09:15:12.867Z,5.10
2023-04-25T09:18:06.065Z,5.00
2023-04-25T09:23:16.705Z,3.80
2023-04-25T09:25:44.571Z,4.80
2023-04-25T09:28:12.330Z,3.00
2023-04-25T09:43:50.053Z,3.70
2023-04-25T09:46:18.500Z,5.80
2023-04-25T09:48:52.469Z,5.70
2023-04-25T09:51:26.855Z,6.60
2023-04-25T09:53:54.558Z,4.80
2023-04-25T09:56:27.281Z,4.40
2023-04-25T09:58:54.306Z,6.00
2023-04-25T10:01:21.898Z,7.20
2023-04-25T10:04:12.926Z,4.60
2023-04-25T10:06:47.614Z,8.70
2023-04-25T10:09:16.594Z,4.80
2023-04-25T10:11:43.839Z,5.30
2023-04-25T10:14:11.021Z,6.30
2023-04-25T10:16:38.894Z,4.70
2023-04-25T10:19:06.089Z,5.90
2023-04-25T10:21:33.511Z,5.40
2023-04-25T10:24:01.071Z,6.10
2023-04-25T10:26:30.067Z,6.30
2023-04-25T10:29:04.571Z,6.60
2023-04-25T10:31:32.411Z,6.30
2023-04-25T10:34:01.623Z,4.90
2023-04-25T10:36:29.213Z,4.80
2023-04-25T10:38:56.607Z,4.40
2023-04-25T10:41:24.434Z,4.00
2023-04-25T10:43:52.350Z,3.60
2023-04-25T10:46:37.554Z,4.40
2023-04-25T10:49:05.254Z,3.70
2023-04-25T10:54:08.256Z,9.80
2023-04-25T10:56:40.972Z,6.40
2023-04-25T10:59:20.598Z,6.50
2023-04-25T11:01:53.710Z,5.70
2023-04-25T11:04:37.702Z,153.90
2023-04-25T11:07:11.135Z,9.20
2023-04-25T11:09:58.497Z,4.20
2023-04-25T11:12:31.672Z,6.50
2023-04-25T11:15:04.032Z,4.30
2023-04-25T11:17:32.021Z,6.40
2023-04-25T11:19:59.770Z,6.30
2023-04-25T11:25:23.050Z,10.00
2023-04-25T11:28:02.653Z,9.00
2023-04-25T11:30:32.020Z,5.00
2023-04-25T11:33:04.199Z,6.90
2023-04-25T11:35:34.912Z,5.30
2023-04-25T11:38:02.808Z,8.60
2023-04-25T11:40:31.228Z,4.80
2023-04-25T11:42:58.209Z,3.80
2023-04-25T11:45:25.522Z,5.80
2023-04-25T11:47:53.170Z,4.20
2023-04-25T11:50:20.761Z,6.80
2023-04-25T11:52:48.152Z,5.60
2023-04-25T11:55:23.031Z,6.30
2023-04-25T11:57:51.695Z,4.00
2023-04-25T12:00:21.476Z,7.00
2023-04-25T12:02:52.107Z,4.50
2023-04-25T12:05:31.965Z,4.30
2023-04-25T12:08:14.048Z,4.00
2023-04-25T12:10:45.068Z,5.70
2023-04-25T12:13:32.657Z,5.10
2023-04-25T12:15:59.843Z,4.00
2023-04-25T12:18:29.824Z,4.20
2023-04-25T12:20:59.553Z,4.70
2023-04-25T12:23:29.633Z,4.20
2023-04-25T12:25:57.512Z,4.40
2023-04-25T12:28:25.821Z,3.60
2023-04-25T12:31:03.366Z,6.10
2023-04-25T12:33:34.937Z,5.00
2023-04-25T12:38:38.998Z,4.50
2023-04-25T12:41:07.000Z,4.40
2023-04-25T12:43:34.286Z,4.20
2023-04-25T12:46:01.547Z,6.30
2023-04-25T12:48:39.578Z,6.10
2023-04-25T12:51:07.000Z,6.20
2023-04-25T12:53:35.616Z,3.80
2023-04-25T12:56:03.044Z,4.30
2023-04-25T12:58:30.086Z,4.60
2023-04-25T13:00:57.418Z,5.10
2023-04-25T13:03:32.079Z,4.20
2023-04-25T13:05:59.518Z,5.30
2023-04-25T13:08:27.027Z,3.70
2023-04-25T13:10:57.202Z,5.60
2023-04-25T13:13:28.648Z,5.70
2023-04-25T13:15:55.902Z,5.90
2023-04-25T13:18:30.230Z,5.70
2023-04-25T13:20:57.678Z,6.90
2023-04-25T13:23:26.411Z,8.50
2023-04-25T13:26:06.312Z,5.60
2023-04-25T13:28:34.097Z,5.20
2023-04-25T13:31:01.776Z,4.70
2023-04-25T13:33:29.201Z,5.80
2023-04-25T13:35:58.382Z,5.10
2023-04-25T13:38:26.696Z,4.70
2023-04-25T13:40:54.077Z,5.80
2023-04-25T13:43:24.355Z,5.00
2023-04-25T13:45:51.840Z,8.30
2023-04-25T13:48:19.745Z,3.50
2023-04-25T13:50:47.535Z,4.40
2023-04-25T13:53:14.908Z,3.40
2023-04-25T13:55:42.172Z,6.70
2023-04-25T13:58:11.293Z,3.50
2023-04-25T14:00:40.531Z,3.40
2023-04-25T14:03:10.997Z,4.50
2023-04-25T14:05:39.580Z,6.50
2023-04-25T14:08:08.289Z,5.20
2023-04-25T14:10:35.918Z,5.00
2023-04-25T14:13:04.671Z,6.10
2023-04-25T14:15:35.219Z,4.40
2023-04-25T14:18:02.906Z,6.10
2023-04-25T14:20:30.720Z,5.20
2023-04-25T14:22:59.408Z,5.10
2023-04-25T14:25:27.136Z,4.40
2023-04-25T14:27:54.559Z,3.70
2023-04-25T14:30:22.113Z,5.00
2023-04-25T14:32:50.948Z,6.10
2023-04-25T14:35:18.465Z,7.80
2023-04-25T14:37:45.680Z,16.70
2023-04-25T14:40:14.431Z,6.90
2023-04-25T14:42:41.572Z,5.20
2023-04-25T14:45:09.794Z,4.60
2023-04-25T14:47:40.350Z,5.70
2023-04-25T14:50:08.474Z,6.60
2023-04-25T14:52:36.210Z,5.40
2023-04-25T14:55:06.344Z,5.00
2023-04-25T14:57:34.732Z,6.70
2023-04-25T15:00:02.416Z,4.40
2023-04-25T15:02:29.912Z,4.50
2023-04-25T15:05:08.160Z,5.90
2023-04-25T15:07:41.388Z,20.10
2023-04-25T15:10:14.679Z,26.90
2023-04-25T15:12:42.135Z,20.70
2023-04-25T15:15:17.572Z,10.60
2023-04-25T15:17:52.744Z,18.70
2023-04-25T15:20:20.315Z,13.10
2023-04-25T15:22:49.965Z,35.50
2023-04-25T15:25:19.190Z,8.40
2023-04-25T15:27:49.497Z,6.70
2023-04-25T15:30:17.674Z,7.30
2023-04-25T15:32:45.859Z,6.80
2023-04-25T15:35:13.478Z,9.80
2023-04-25T15:37:41.629Z,4.50
2023-04-25T15:40:13.988Z,5.80
2023-04-25T15:42:51.823Z,6.80
2023-04-25T15:45:24.348Z,5.50
2023-04-25T15:47:53.113Z,6.10
2023-04-25T15:50:20.321Z,6.80
2023-04-25T15:52:49.925Z,3.50
2023-04-25T15:55:18.000Z,4.80
2023-04-25T15:57:48.020Z,3.50
2023-04-25T16:00:17.734Z,8.50
2023-04-25T16:02:46.699Z,4.90
2023-04-25T16:05:15.724Z,4.30
2023-04-25T16:07:44.045Z,7.30
2023-04-25T16:10:11.876Z,7.60
2023-04-25T16:12:40.060Z,7.70
2023-04-25T16:15:07.938Z,8.40
2023-04-25T16:17:35.498Z,8.80
2023-04-25T16:20:10.034Z,8.70
2023-04-25T16:22:45.116Z,8.90
2023-04-25T16:25:14.786Z,9.90
2023-04-25T16:27:41.923Z,6.80
2023-04-25T16:30:12.701Z,5.50
2023-04-25T16:32:56.124Z,5.60
2023-04-25T16:35:36.476Z,8.10
2023-04-25T16:38:13.713Z,10.40
2023-04-25T16:40:43.976Z,15.40
2023-04-25T16:43:35.330Z,13.70
2023-04-25T16:46:06.385Z,12.50
2023-04-25T16:48:43.121Z,9.60
2023-04-25T16:51:30.531Z,8.50
2023-04-25T16:53:58.320Z,8.00
2023-04-25T16:56:27.133Z,7.10
2023-04-25T16:59:21.880Z,10.60
2023-04-25T17:02:21.108Z,7.10
2023-04-25T17:04:49.163Z,10.30
2023-04-25T17:07:17.020Z,7.50
2023-04-25T17:09:44.275Z,12.40
2023-04-25T17:12:11.538Z,10.50
2023-04-25T17:14:49.121Z,16.90
2023-04-25T17:17:27.924Z,13.80
2023-04-25T17:19:55.255Z,8.70
2023-04-25T17:22:25.014Z,9.00
2023-04-25T17:25:12.672Z,8.70
2023-04-25T17:27:40.737Z,8.70
2023-04-25T17:30:08.763Z,5.20
2023-04-25T17:32:36.495Z,9.70
2023-04-25T17:35:06.846Z,7.90
2023-04-25T17:37:37.204Z,11.10
2023-04-25T17:40:12.386Z,12.30
2023-04-25T17:42:43.468Z,55.40
2023-04-25T17:45:15.882Z,19.90
2023-04-25T17:48:03.195Z,26.60
2023-04-25T17:50:32.472Z,34.60
2023-04-25T17:53:00.042Z,30.70
2023-04-25T17:55:27.714Z,37.80
2023-04-25T17:57:55.655Z,40.60
2023-04-25T18:00:23.066Z,60.10
2023-04-25T18:02:52.341Z,68.40
2023-04-25T18:05:19.769Z,77.60
2023-04-25T18:07:47.335Z,88.40
2023-04-25T18:10:17.868Z,70.80
2023-04-25T18:12:45.019Z,102.80
2023-04-25T18:15:14.833Z,90.10
2023-04-25T18:17:42.705Z,90.60
2023-04-25T18:20:15.147Z,75.50
2023-04-25T18:22:45.759Z,60.40
2023-04-25T18:25:14.177Z,48.10
2023-04-25T18:27:41.840Z,39.60
2023-04-25T18:30:10.850Z,30.70
2023-04-25T18:32:38.247Z,30.80
2023-04-25T18:35:06.180Z,27.20
2023-04-25T18:37:33.843Z,23.70
2023-04-25T18:40:06.421Z,26.00
2023-04-25T18:42:33.850Z,21.70
2023-04-25T18:45:00.999Z,25.40
2023-04-25T18:47:28.354Z,21.90
2023-04-25T18:49:55.717Z,29.40
2023-04-25T18:52:23.477Z,23.20
2023-04-25T18:55:11.600Z,22.70
2023-04-25T18:57:41.434Z,22.40
2023-04-25T19:00:09.721Z,25.50
2023-04-25T19:02:38.174Z,25.70
2023-04-25T19:05:06.164Z,22.30
2023-04-25T19:07:33.735Z,21.80
2023-04-25T19:10:00.973Z,21.10
2023-04-25T19:12:28.121Z,21.10
2023-04-25T19:14:55.689Z,19.50
2023-04-25T19:17:23.785Z,20.80
2023-04-25T19:19:51.004Z,26.70
2023-04-25T19:22:18.052Z,23.80
2023-04-25T19:24:47.233Z,28.50
2023-04-25T19:27:17.597Z,23.40
2023-04-25T19:29:48.414Z,29.20
2023-04-25T19:32:15.981Z,28.00
2023-04-25T19:34:43.241Z,33.90
2023-04-25T19:37:10.999Z,30.20
2023-04-25T19:39:38.355Z,22.80
2023-04-25T19:42:15.336Z,21.60
2023-04-25T19:44:43.104Z,23.60
2023-04-25T19:47:11.487Z,21.20
2023-04-25T19:49:38.533Z,25.00
2023-04-25T19:52:07.318Z,27.10
2023-04-25T19:54:34.783Z,28.70
2023-04-25T19:57:03.983Z,31.70
2023-04-25T19:59:33.889Z,26.60
2023-04-25T20:02:01.196Z,25.40
2023-04-25T20:04:28.609Z,22.00
2023-04-25T20:06:56.435Z,24.50
2023-04-25T20:09:23.592Z,23.80
2023-04-25T20:11:51.147Z,24.00
2023-04-25T20:14:18.511Z,16.80
2023-04-25T20:16:47.107Z,19.80
2023-04-25T20:19:14.653Z,20.30
2023-04-25T20:21:41.901Z,25.90
2023-04-25T20:24:08.956Z,17.50
2023-04-25T20:26:37.226Z,19.70
2023-04-25T20:29:04.906Z,15.50
2023-04-25T20:31:32.544Z,19.60
2023-04-25T20:34:01.672Z,15.40
2023-04-25T20:36:29.518Z,13.30
2023-04-25T20:38:57.405Z,13.50
2023-04-25T20:41:24.952Z,10.20
2023-04-25T20:43:53.524Z,11.30
2023-04-25T20:46:20.898Z,10.80
2023-04-25T20:48:49.768Z,11.30
2023-04-25T20:51:17.026Z,12.00
2023-04-25T20:53:44.211Z,9.40
2023-04-25T20:56:13.127Z,12.20
2023-04-25T20:58:41.371Z,10.30
2023-04-25T21:01:09.409Z,11.80
2023-04-25T21:03:36.845Z,8.70
2023-04-25T21:06:04.381Z,10.50
2023-04-25T21:08:31.577Z,8.70
2023-04-25T21:10:58.743Z,8.90
2023-04-25T21:13:29.260Z,13.30
2023-04-25T21:15:57.032Z,12.70
2023-04-25T21:18:24.183Z,6.90
2023-04-25T21:20:51.346Z,7.60
2023-04-25T21:23:19.591Z,9.10
2023-04-25T21:25:48.691Z,7.20
2023-04-25T21:28:15.837Z,11.90
2023-04-25T21:30:43.035Z,8.10
2023-04-25T21:33:10.572Z,10.20
2023-04-25T21:35:46.390Z,13.40
2023-04-25T21:38:14.807Z,8.90
2023-04-25T21:40:42.274Z,7.60
2023-04-25T21:43:10.073Z,8.10
2023-04-25T21:45:47.079Z,11.70
2023-04-25T21:48:24.613Z,8.80
2023-04-25T21:52:23.013Z,8.70
2023-04-25T21:54:50.349Z,9.00
2023-04-25T21:57:17.381Z,8.10
2023-04-25T21:59:44.373Z,7.80
2023-04-25T22:02:12.605Z,10.00
2023-04-25T22:04:39.946Z,9.10
2023-04-25T22:07:07.083Z,12.50
2023-04-25T22:09:43.811Z,11.80
2023-04-25T22:12:18.776Z,13.40
2023-04-25T22:14:46.237Z,14.10
2023-04-25T22:17:13.281Z,10.60
2023-04-25T22:19:40.224Z,8.50
2023-04-25T22:22:07.894Z,6.70
2023-04-25T22:24:34.945Z,7.80
2023-04-25T22:27:02.676Z,7.80
2023-04-25T22:29:29.763Z,6.90
2023-04-25T22:31:57.176Z,9.40
2023-04-25T22:34:24.350Z,10.30
2023-04-25T22:36:51.364Z,12.50
2023-04-25T22:39:19.443Z,10.20
2023-04-25T22:41:46.787Z,8.60
2023-04-25T22:44:14.023Z,11.00
2023-04-25T22:46:41.295Z,7.40
2023-04-25T22:49:08.479Z,10.70
2023-04-25T22:51:37.233Z,8.10
2023-04-25T22:54:05.801Z,11.30
2023-04-25T22:56:32.867Z,6.50
2023-04-25T22:58:59.984Z,7.70
2023-04-25T23:01:28.158Z,8.20
2023-04-25T23:03:55.522Z,6.80
2023-04-25T23:06:23.190Z,7.50
2023-04-25T23:08:50.666Z,6.10
2023-04-25T23:11:17.989Z,6.60
2023-04-25T23:13:45.751Z,11.50
2023-04-25T23:16:12.799Z,7.50
2023-04-25T23:18:40.450Z,7.00
2023-04-25T23:21:11.826Z,5.70
2023-04-25T23:23:38.994Z,9.50
2023-04-25T23:26:12.549Z,8.20
2023-04-25T23:28:41.736Z,10.10
2023-04-25T23:31:10.473Z,8.00
2023-04-25T23:33:37.762Z,7.10
2023-04-25T23:36:05.550Z,8.50
2023-04-25T23:38:32.460Z,7.20
2023-04-25T23:40:59.997Z,6.70
2023-04-25T23:43:27.040Z,7.00
2023-04-25T23:45:55.550Z,8.90
2023-04-25T23:48:23.264Z,8.30
2023-04-25T23:50:50.214Z,8.30
2023-04-25T23:53:17.214Z,9.30
2023-04-25T23:55:44.427Z,6.50
2023-04-25T23:58:11.673Z,6.80
